createdAt,value
2023-05-03T00:00:52.501Z,14.42
2023-05-03T00:05:55.506Z,14.46
2023-05-03T00:11:01.594Z,14.43
2023-05-03T00:16:04.967Z,14.37
2023-05-03T00:21:08.051Z,14.29
2023-05-03T00:26:11.031Z,14.23
2023-05-03T00:31:15.423Z,14.21
2023-05-03T00:36:18.635Z,14.26
2023-05-03T00:41:21.663Z,14.29
2023-05-03T00:46:24.789Z,14.29
2023-05-03T00:51:28.478Z,14.26
2023-05-03T00:56:38.001Z,14.26
2023-05-03T01:01:52.898Z,14.19
2023-05-03T01:07:21.617Z,14.17
2023-05-03T01:12:37.576Z,14.20
2023-05-03T01:17:49.181Z,14.20
2023-05-03T01:23:04.166Z,14.18
2023-05-03T01:28:07.339Z,14.11
2023-05-03T01:33:21.563Z,14.07
2023-05-03T01:38:25.410Z,14.00
2023-05-03T01:43:31.697Z,13.98
2023-05-03T01:48:34.786Z,14.00
2023-05-03T01:53:39.248Z,14.00
2023-05-03T01:58:42.440Z,14.02
2023-05-03T02:03:45.900Z,14.05
2023-05-03T02:08:48.865Z,14.07
2023-05-03T02:13:51.903Z,14.00
2023-05-03T02:18:59.550Z,13.96
2023-05-03T02:24:03.907Z,14.05
2023-05-03T02:29:07.572Z,14.04
2023-05-03T02:34:10.758Z,14.04
2023-05-03T02:39:14.002Z,13.96
2023-05-03T02:44:17.836Z,13.92
2023-05-03T02:49:21.037Z,13.91
2023-05-03T02:54:24.911Z,13.89
2023-05-03T02:59:29.234Z,13.84
2023-05-03T03:04:33.642Z,13.86
2023-05-03T03:09:37.349Z,13.89
2023-05-03T03:14:41.753Z,13.89
2023-05-03T03:19:46.154Z,13.85
2023-05-03T03:24:49.573Z,13.82
2023-05-03T03:29:53.760Z,13.80
2023-05-03T03:34:56.810Z,13.79
2023-05-03T03:40:05.046Z,13.83
2023-05-03T03:45:09.247Z,13.86
2023-05-03T03:50:12.500Z,13.88
2023-05-03T03:55:15.741Z,13.88
2023-05-03T04:00:20.207Z,13.88
2023-05-03T04:05:25.099Z,13.90
2023-05-03T04:10:28.868Z,13.87
2023-05-03T04:15:32.151Z,13.78
2023-05-03T04:20:36.964Z,13.73
2023-05-03T04:25:46.808Z,13.75
2023-05-03T04:30:51.847Z,13.80
2023-05-03T04:35:58.976Z,13.83
2023-05-03T04:41:02.877Z,13.87
2023-05-03T04:47:28.008Z,13.93
2023-05-03T04:52:31.208Z,13.90
2023-05-03T04:57:34.718Z,13.89
2023-05-03T05:02:38.549Z,13.89
2023-05-03T05:07:42.853Z,13.89
2023-05-03T05:12:46.924Z,13.88
2023-05-03T05:17:50.293Z,13.87
2023-05-03T05:22:54.902Z,13.87
2023-05-03T05:27:58.198Z,13.88
2023-05-03T05:33:01.557Z,13.93
2023-05-03T05:38:05.552Z,13.93
2023-05-03T05:43:09.858Z,13.91
2023-05-03T05:48:14.402Z,13.89
2023-05-03T05:53:18.525Z,13.86
2023-05-03T05:58:27.231Z,13.81
2023-05-03T06:03:31.967Z,13.82
2023-05-03T06:08:36.982Z,13.91
2023-05-03T06:13:41.960Z,13.93
2023-05-03T06:18:46.113Z,13.96
2023-05-03T06:23:49.143Z,13.95
2023-05-03T06:28:52.594Z,13.95
2023-05-03T06:33:56.491Z,13.90
2023-05-03T06:39:00.029Z,13.88
2023-05-03T06:44:04.421Z,13.91
2023-05-03T06:49:07.513Z,13.93
2023-05-03T06:54:10.609Z,13.95
2023-05-03T06:59:13.694Z,13.92
2023-05-03T07:04:16.981Z,13.88
2023-05-03T07:09:23.914Z,13.84
2023-05-03T07:14:35.116Z,13.83
2023-05-03T07:19:38.970Z,13.82
2023-05-03T07:24:42.135Z,13.83
2023-05-03T07:29:45.104Z,13.82
2023-05-03T07:34:48.073Z,13.78
2023-05-03T07:39:51.132Z,13.79
2023-05-03T07:44:55.549Z,13.80
2023-05-03T07:49:58.821Z,13.86
2023-05-03T07:55:03.531Z,13.95
2023-05-03T08:00:11.426Z,14.05
2023-05-03T08:05:17.921Z,14.14
2023-05-03T08:10:21.492Z,14.23
2023-05-03T08:15:24.828Z,14.28
2023-05-03T08:20:28.285Z,14.30
2023-05-03T08:25:37.347Z,14.36
2023-05-03T08:30:40.615Z,14.47
2023-05-03T08:35:43.994Z,14.56
2023-05-03T08:40:51.413Z,14.62
2023-05-03T08:45:54.542Z,14.65
2023-05-03T08:50:59.139Z,14.71
2023-05-03T08:56:07.152Z,14.77
2023-05-03T09:01:10.675Z,14.81
2023-05-03T09:06:27.511Z,14.96
2023-05-03T09:11:37.413Z,15.13
2023-05-03T09:16:42.100Z,15.23
2023-05-03T09:21:49.143Z,15.29
2023-05-03T09:26:53.282Z,15.31
2023-05-03T09:32:04.123Z,15.28
2023-05-03T09:37:07.209Z,15.21
2023-05-03T09:42:19.541Z,15.16
2023-05-03T09:47:25.657Z,15.11
2023-05-03T09:52:29.438Z,15.05
2023-05-03T09:57:33.269Z,15.04
2023-05-03T10:02:36.738Z,15.03
2023-05-03T10:07:43.489Z,14.97
2023-05-03T10:12:47.495Z,14.87
2023-05-03T10:17:54.323Z,14.77
2023-05-03T10:23:06.746Z,14.67
2023-05-03T10:28:10.075Z,14.62
2023-05-03T10:33:13.289Z,14.58
2023-05-03T10:38:17.526Z,14.57
2023-05-03T10:43:32.256Z,14.59
2023-05-03T10:48:35.916Z,14.53
2023-05-03T10:53:42.766Z,14.49
2023-05-03T10:58:48.813Z,14.47
2023-05-03T11:04:12.684Z,14.48
2023-05-03T11:09:16.455Z,14.48
2023-05-03T11:14:19.543Z,14.46
2023-05-03T11:19:23.065Z,14.37
2023-05-03T11:24:27.662Z,14.30
2023-05-03T11:29:31.698Z,14.27
2023-05-03T11:34:36.059Z,14.25
2023-05-03T11:39:39.317Z,14.33
2023-05-03T11:44:42.424Z,14.43
2023-05-03T11:49:54.776Z,14.51
2023-05-03T11:54:57.944Z,14.51
2023-05-03T12:00:25.053Z,14.46
2023-05-03T12:05:28.421Z,14.41
2023-05-03T12:10:34.794Z,14.36
2023-05-03T12:15:40.852Z,14.37
2023-05-03T12:21:29.165Z,14.40
2023-05-03T12:26:09.654Z,14.44
2023-05-03T12:31:13.362Z,14.38
2023-05-03T12:36:17.111Z,14.25
2023-05-03T12:41:52.009Z,14.13
2023-05-03T12:52:11.224Z,14.05
2023-05-03T12:57:23.614Z,14.07
2023-05-03T13:07:41.413Z,14.15
2023-05-03T13:12:45.935Z,14.14
2023-05-03T13:17:50.792Z,14.14
2023-05-03T13:22:55.195Z,14.12
2023-05-03T13:28:01.941Z,14.06
2023-05-03T13:33:05.378Z,14.03
2023-05-03T13:38:09.295Z,14.02
2023-05-03T13:43:12.338Z,14.02
2023-05-03T13:48:18.436Z,14.04
2023-05-03T13:53:22.372Z,14.03
2023-05-03T13:58:25.795Z,13.98
2023-05-03T14:03:29.001Z,13.92
2023-05-03T14:08:32.029Z,13.90
2023-05-03T14:13:47.623Z,13.90
2023-05-03T14:18:59.264Z,13.87
2023-05-03T14:24:02.458Z,13.92
2023-05-03T14:29:06.079Z,13.97
2023-05-03T14:34:09.172Z,14.00
2023-05-03T14:39:14.846Z,14.03
2023-05-03T14:44:22.975Z,14.01
2023-05-03T14:49:26.920Z,13.97
2023-05-03T14:54:30.380Z,13.92
2023-05-03T14:59:34.109Z,13.88
2023-05-03T15:04:39.928Z,13.86
2023-05-03T15:09:44.916Z,13.86
2023-05-03T15:14:48.527Z,13.89
2023-05-03T15:19:52.900Z,13.91
2023-05-03T15:24:55.952Z,13.93
2023-05-03T15:29:59.054Z,13.92
2023-05-03T15:35:02.267Z,13.91
2023-05-03T15:40:06.505Z,13.89
2023-05-03T15:45:10.960Z,13.88
2023-05-03T15:50:14.167Z,13.91
2023-05-03T15:55:18.830Z,13.95
2023-05-03T16:00:23.645Z,13.99
2023-05-03T16:05:27.479Z,14.13
2023-05-03T16:10:30.911Z,14.09
2023-05-03T16:15:34.078Z,14.02
2023-05-03T16:20:37.274Z,13.96
2023-05-03T16:25:40.339Z,13.89
2023-05-03T16:30:44.607Z,13.89
2023-05-03T16:35:47.661Z,13.93
2023-05-03T16:40:53.799Z,13.98
2023-05-03T16:46:01.118Z,13.97
2023-05-03T16:51:04.636Z,13.93
2023-05-03T16:56:09.198Z,13.94
2023-05-03T17:01:13.463Z,13.90
2023-05-03T17:06:18.372Z,13.93
2023-05-03T17:11:22.924Z,13.99
2023-05-03T17:16:26.703Z,14.00
2023-05-03T17:21:29.753Z,14.09
2023-05-03T17:26:33.462Z,14.11
2023-05-03T17:31:37.113Z,14.07
2023-05-03T17:36:40.449Z,13.98
2023-05-03T17:41:43.525Z,13.89
2023-05-03T17:46:46.798Z,13.81
2023-05-03T17:51:49.942Z,13.71
2023-05-03T17:56:53.090Z,13.67
2023-05-03T18:01:56.800Z,13.68
2023-05-03T18:07:00.052Z,13.73
2023-05-03T18:12:04.030Z,13.75
2023-05-03T18:17:08.159Z,13.79
2023-05-03T18:22:12.495Z,13.77
2023-05-03T18:27:15.598Z,13.72
2023-05-03T18:32:18.609Z,13.67
2023-05-03T18:37:24.470Z,13.64
2023-05-03T18:42:27.896Z,13.65
2023-05-03T18:47:30.942Z,13.66
2023-05-03T18:52:34.065Z,13.69
2023-05-03T18:57:38.259Z,13.67
2023-05-03T19:02:41.488Z,13.66
2023-05-03T19:07:49.141Z,13.55
2023-05-03T19:12:53.566Z,13.48
2023-05-03T19:17:56.949Z,13.48
2023-05-03T19:22:59.996Z,13.47
2023-05-03T19:28:05.261Z,13.47
2023-05-03T19:33:08.505Z,13.46
2023-05-03T19:38:11.440Z,13.41
2023-05-03T19:43:14.701Z,13.37
2023-05-03T19:48:18.327Z,13.34
2023-05-03T19:53:21.759Z,13.32
2023-05-03T19:58:25.630Z,13.33
2023-05-03T20:03:28.996Z,13.39
2023-05-03T20:08:32.554Z,13.46
2023-05-03T20:13:35.595Z,13.42
2023-05-03T20:18:39.173Z,13.37
2023-05-03T20:25:33.350Z,13.39
2023-05-03T20:30:36.695Z,13.35
2023-05-03T20:35:39.998Z,13.37
2023-05-03T20:40:43.041Z,13.38
2023-05-03T20:45:46.546Z,13.38
2023-05-03T20:50:50.189Z,13.34
2023-05-03T20:55:57.020Z,13.29
2023-05-03T21:01:04.810Z,13.24
2023-05-03T21:06:08.670Z,13.22
2023-05-03T21:11:11.652Z,13.26
2023-05-03T21:16:15.046Z,13.29
2023-05-03T21:21:18.078Z,13.29
2023-05-03T21:26:21.324Z,13.27
2023-05-03T21:31:24.322Z,13.27
2023-05-03T21:36:27.473Z,13.20
2023-05-03T21:41:30.611Z,13.17
2023-05-03T21:46:33.628Z,13.20
2023-05-03T21:51:51.210Z,13.23
2023-05-03T21:56:54.271Z,13.21
2023-05-03T22:01:57.357Z,13.18
2023-05-03T22:07:00.395Z,13.14
2023-05-03T22:12:19.179Z,13.08
2023-05-03T22:17:27.249Z,13.08
2023-05-03T22:22:30.217Z,13.10
2023-05-03T22:27:33.202Z,13.13
2023-05-03T22:32:36.658Z,13.12
2023-05-03T22:37:39.778Z,13.08
2023-05-03T22:42:47.373Z,13.06
2023-05-03T22:47:50.477Z,13.00
2023-05-03T22:52:53.606Z,12.98
2023-05-03T22:57:56.800Z,13.01
2023-05-03T23:03:00.181Z,13.01
2023-05-03T23:08:03.516Z,12.97
2023-05-03T23:13:06.596Z,12.94
2023-05-03T23:18:09.737Z,12.93
2023-05-03T23:23:13.329Z,12.90
2023-05-03T23:28:16.694Z,12.91
2023-05-03T23:33:20.382Z,12.94
2023-05-03T23:38:23.857Z,12.95
2023-05-03T23:43:43.121Z,12.95
2023-05-03T23:48:46.197Z,12.92
2023-05-03T23:53:49.195Z,12.89
2023-05-03T23:58:52.664Z,12.82
